sensor_id;sensor_type;location;lat;lon;timestamp;P1;durP1;ratioP1;P2;durP2;ratioP2
10343;SDS011;5217;43.960;10.954;2022-12-07T00:01:35;9.10;;;6.90;;
10343;SDS011;5217;43.960;10.954;2022-12-07T00:04:06;8.90;;;7.70;;
10343;SDS011;5217;43.960;10.954;2022-12-07T00:06:39;9.37;;;8.33;;
10343;SDS011;5217;43.960;10.954;2022-12-07T00:09:09;11.80;;;8.70;;
10343;SDS011;5217;43.960;10.954;2022-12-07T00:11:39;11.43;;;8.10;;
10343;SDS011;5217;43.960;10.954;2022-12-07T00:14:11;8.10;;;7.27;;
10343;SDS011;5217;43.960;10.954;2022-12-07T00:16:41;9.63;;;7.07;;
10343;SDS011;5217;43.960;10.954;2022-12-07T00:19:10;7.60;;;6.80;;
10343;SDS011;5217;43.960;10.954;2022-12-07T00:21:39;7.43;;;6.67;;
10343;SDS011;5217;43.960;10.954;2022-12-07T00:24:09;7.47;;;6.73;;
10343;SDS011;5217;43.960;10.954;2022-12-07T00:26:39;8.60;;;7.43;;
10343;SDS011;5217;43.960;10.954;2022-12-07T00:29:13;8.00;;;6.70;;
10343;SDS011;5217;43.960;10.954;2022-12-07T00:31:44;7.70;;;7.00;;
10343;SDS011;5217;43.960;10.954;2022-12-07T00:34:13;9.13;;;8.23;;
10343;SDS011;5217;43.960;10.954;2022-12-07T00:36:44;9.77;;;8.87;;
10343;SDS011;5217;43.960;10.954;2022-12-07T00:39:12;10.07;;;9.13;;
10343;SDS011;5217;43.960;10.954;2022-12-07T00:41:41;9.20;;;8.40;;
10343;SDS011;5217;43.960;10.954;2022-12-07T00:44:10;10.83;;;7.33;;
10343;SDS011;5217;43.960;10.954;2022-12-07T00:46:40;7.70;;;6.80;;
10343;SDS011;5217;43.960;10.954;2022-12-07T00:49:08;7.87;;;7.07;;
10343;SDS011;5217;43.960;10.954;2022-12-07T00:51:36;9.63;;;6.93;;
10343;SDS011;5217;43.960;10.954;2022-12-07T00:54:05;9.10;;;7.00;;
10343;SDS011;5217;43.960;10.954;2022-12-07T00:56:33;8.17;;;6.90;;
10343;SDS011;5217;43.960;10.954;2022-12-07T00:59:03;7.10;;;6.50;;
10343;SDS011;5217;43.960;10.954;2022-12-07T01:01:32;7.00;;;6.40;;
10343;SDS011;5217;43.960;10.954;2022-12-07T01:04:04;8.60;;;6.50;;
10343;SDS011;5217;43.960;10.954;2022-12-07T01:06:34;7.63;;;6.90;;
10343;SDS011;5217;43.960;10.954;2022-12-07T01:09:03;7.37;;;6.33;;
10343;SDS011;5217;43.960;10.954;2022-12-07T01:11:32;8.10;;;6.30;;
10343;SDS011;5217;43.960;10.954;2022-12-07T01:14:01;7.03;;;6.40;;
10343;SDS011;5217;43.960;10.954;2022-12-07T01:16:30;7.43;;;6.20;;
10343;SDS011;5217;43.960;10.954;2022-12-07T01:19:00;6.47;;;5.77;;
10343;SDS011;5217;43.960;10.954;2022-12-07T01:21:33;7.30;;;5.63;;
10343;SDS011;5217;43.960;10.954;2022-12-07T01:24:05;6.10;;;5.60;;
10343;SDS011;5217;43.960;10.954;2022-12-07T01:26:35;7.63;;;5.50;;
10343;SDS011;5217;43.960;10.954;2022-12-07T01:29:03;6.80;;;5.60;;
10343;SDS011;5217;43.960;10.954;2022-12-07T01:31:32;7.07;;;6.00;;
10343;SDS011;5217;43.960;10.954;2022-12-07T01:34:01;6.67;;;5.40;;
10343;SDS011;5217;43.960;10.954;2022-12-07T01:36:30;6.80;;;5.77;;
10343;SDS011;5217;43.960;10.954;2022-12-07T01:39:02;6.40;;;5.80;;
10343;SDS011;5217;43.960;10.954;2022-12-07T01:41:32;6.90;;;5.90;;
10343;SDS011;5217;43.960;10.954;2022-12-07T01:44:16;6.80;;;5.33;;
10343;SDS011;5217;43.960;10.954;2022-12-07T01:46:48;9.23;;;5.80;;
10343;SDS011;5217;43.960;10.954;2022-12-07T01:49:28;9.33;;;5.93;;
10343;SDS011;5217;43.960;10.954;2022-12-07T01:52:05;6.07;;;5.43;;
10343;SDS011;5217;43.960;10.954;2022-12-07T01:54:42;6.17;;;5.57;;
10343;SDS011;5217;43.960;10.954;2022-12-07T01:57:12;7.80;;;5.63;;
10343;SDS011;5217;43.960;10.954;2022-12-07T01:59:43;6.30;;;5.70;;
10343;SDS011;5217;43.960;10.954;2022-12-07T02:02:17;6.77;;;6.17;;
10343;SDS011;5217;43.960;10.954;2022-12-07T02:04:47;8.97;;;6.00;;
10343;SDS011;5217;43.960;10.954;2022-12-07T02:07:18;8.97;;;5.90;;
10343;SDS011;5217;43.960;10.954;2022-12-07T02:09:47;6.63;;;6.03;;
10343;SDS011;5217;43.960;10.954;2022-12-07T02:12:16;7.33;;;6.60;;
10343;SDS011;5217;43.960;10.954;2022-12-07T02:14:44;10.93;;;6.90;;
10343;SDS011;5217;43.960;10.954;2022-12-07T02:17:14;7.80;;;6.90;;
10343;SDS011;5217;43.960;10.954;2022-12-07T02:20:00;7.37;;;6.60;;
10343;SDS011;5217;43.960;10.954;2022-12-07T02:26:02;7.60;;;6.63;;
10343;SDS011;5217;43.960;10.954;2022-12-07T02:28:59;8.97;;;6.90;;
10343;SDS011;5217;43.960;10.954;2022-12-07T02:31:40;8.17;;;6.57;;
10343;SDS011;5217;43.960;10.954;2022-12-07T02:34:14;9.73;;;7.33;;
10343;SDS011;5217;43.960;10.954;2022-12-07T02:36:50;8.10;;;6.50;;
10343;SDS011;5217;43.960;10.954;2022-12-07T02:39:25;8.10;;;7.30;;
10343;SDS011;5217;43.960;10.954;2022-12-07T02:42:02;11.20;;;7.07;;
10343;SDS011;5217;43.960;10.954;2022-12-07T02:44:38;7.83;;;7.03;;
10343;SDS011;5217;43.960;10.954;2022-12-07T02:47:09;9.37;;;7.60;;
10343;SDS011;5217;43.960;10.954;2022-12-07T02:49:41;8.03;;;6.70;;
10343;SDS011;5217;43.960;10.954;2022-12-07T02:52:10;7.83;;;6.83;;
10343;SDS011;5217;43.960;10.954;2022-12-07T02:54:39;8.97;;;7.17;;
10343;SDS011;5217;43.960;10.954;2022-12-07T02:57:12;11.37;;;7.00;;
10343;SDS011;5217;43.960;10.954;2022-12-07T02:59:59;8.83;;;7.50;;
10343;SDS011;5217;43.960;10.954;2022-12-07T03:02:35;8.00;;;7.20;;
10343;SDS011;5217;43.960;10.954;2022-12-07T03:05:18;8.17;;;6.97;;
10343;SDS011;5217;43.960;10.954;2022-12-07T03:07:59;9.33;;;7.43;;
10343;SDS011;5217;43.960;10.954;2022-12-07T03:10:33;9.67;;;7.50;;
10343;SDS011;5217;43.960;10.954;2022-12-07T03:13:09;7.43;;;6.73;;
10343;SDS011;5217;43.960;10.954;2022-12-07T03:15:45;7.53;;;6.83;;
10343;SDS011;5217;43.960;10.954;2022-12-07T03:18:18;9.13;;;7.30;;
10343;SDS011;5217;43.960;10.954;2022-12-07T03:20:49;7.50;;;6.70;;
10343;SDS011;5217;43.960;10.954;2022-12-07T03:23:19;7.93;;;6.70;;
10343;SDS011;5217;43.960;10.954;2022-12-07T03:25:52;9.43;;;6.47;;
10343;SDS011;5217;43.960;10.954;2022-12-07T03:28:26;7.00;;;6.30;;
10343;SDS011;5217;43.960;10.954;2022-12-07T03:31:01;11.03;;;6.83;;
10343;SDS011;5217;43.960;10.954;2022-12-07T03:33:35;7.67;;;6.97;;
10343;SDS011;5217;43.960;10.954;2022-12-07T03:36:11;7.67;;;6.87;;
10343;SDS011;5217;43.960;10.954;2022-12-07T03:38:45;7.80;;;7.00;;
10343;SDS011;5217;43.960;10.954;2022-12-07T03:41:18;9.97;;;6.53;;
10343;SDS011;5217;43.960;10.954;2022-12-07T03:43:53;7.30;;;6.40;;
10343;SDS011;5217;43.960;10.954;2022-12-07T03:46:27;6.90;;;6.00;;
10343;SDS011;5217;43.960;10.954;2022-12-07T03:49:04;10.07;;;6.80;;
10343;SDS011;5217;43.960;10.954;2022-12-07T03:51:40;6.90;;;6.20;;
10343;SDS011;5217;43.960;10.954;2022-12-07T03:54:14;8.57;;;6.43;;
10343;SDS011;5217;43.960;10.954;2022-12-07T03:56:47;8.67;;;6.50;;
10343;SDS011;5217;43.960;10.954;2022-12-07T03:59:17;8.07;;;6.20;;
10343;SDS011;5217;43.960;10.954;2022-12-07T04:01:52;8.07;;;6.03;;
10343;SDS011;5217;43.960;10.954;2022-12-07T04:04:23;8.20;;;6.70;;
10343;SDS011;5217;43.960;10.954;2022-12-07T04:06:53;7.50;;;6.40;;
10343;SDS011;5217;43.960;10.954;2022-12-07T04:09:21;7.70;;;6.23;;
10343;SDS011;5217;43.960;10.954;2022-12-07T04:11:50;10.47;;;6.63;;
10343;SDS011;5217;43.960;10.954;2022-12-07T04:14:18;9.07;;;6.97;;
10343;SDS011;5217;43.960;10.954;2022-12-07T04:16:47;7.73;;;6.80;;
10343;SDS011;5217;43.960;10.954;2022-12-07T04:19:19;8.70;;;6.07;;
10343;SDS011;5217;43.960;10.954;2022-12-07T04:21:50;7.37;;;6.43;;
10343;SDS011;5217;43.960;10.954;2022-12-07T04:24:19;7.00;;;6.20;;
10343;SDS011;5217;43.960;10.954;2022-12-07T04:26:48;9.30;;;6.30;;
10343;SDS011;5217;43.960;10.954;2022-12-07T04:29:17;7.30;;;6.60;;
10343;SDS011;5217;43.960;10.954;2022-12-07T04:31:45;7.67;;;5.70;;
10343;SDS011;5217;43.960;10.954;2022-12-07T04:34:14;8.07;;;6.27;;
10343;SDS011;5217;43.960;10.954;2022-12-07T04:36:45;8.47;;;6.17;;
10343;SDS011;5217;43.960;10.954;2022-12-07T04:39:17;9.73;;;6.73;;
10343;SDS011;5217;43.960;10.954;2022-12-07T04:41:48;8.63;;;6.30;;
10343;SDS011;5217;43.960;10.954;2022-12-07T04:44:17;7.57;;;6.40;;
10343;SDS011;5217;43.960;10.954;2022-12-07T04:46:46;6.90;;;6.20;;
10343;SDS011;5217;43.960;10.954;2022-12-07T04:49:16;7.63;;;5.97;;
10343;SDS011;5217;43.960;10.954;2022-12-07T04:51:47;7.77;;;5.93;;
10343;SDS011;5217;43.960;10.954;2022-12-07T04:54:15;6.77;;;6.03;;
10343;SDS011;5217;43.960;10.954;2022-12-07T04:56:45;6.63;;;5.67;;
10343;SDS011;5217;43.960;10.954;2022-12-07T04:59:14;6.60;;;5.90;;
10343;SDS011;5217;43.960;10.954;2022-12-07T05:01:43;6.20;;;5.60;;
10343;SDS011;5217;43.960;10.954;2022-12-07T05:04:12;5.70;;;5.20;;
10343;SDS011;5217;43.960;10.954;2022-12-07T05:06:42;8.07;;;5.40;;
10343;SDS011;5217;43.960;10.954;2022-12-07T05:09:12;7.43;;;5.60;;
10343;SDS011;5217;43.960;10.954;2022-12-07T05:11:41;7.13;;;5.40;;
10343;SDS011;5217;43.960;10.954;2022-12-07T05:14:11;8.37;;;5.63;;
10343;SDS011;5217;43.960;10.954;2022-12-07T05:16:41;7.63;;;5.90;;
10343;SDS011;5217;43.960;10.954;2022-12-07T05:19:11;6.40;;;5.80;;
10343;SDS011;5217;43.960;10.954;2022-12-07T05:21:40;6.43;;;5.53;;
10343;SDS011;5217;43.960;10.954;2022-12-07T05:24:10;9.03;;;5.93;;
10343;SDS011;5217;43.960;10.954;2022-12-07T05:26:41;5.67;;;5.17;;
10343;SDS011;5217;43.960;10.954;2022-12-07T05:29:11;7.90;;;5.80;;
10343;SDS011;5217;43.960;10.954;2022-12-07T05:31:41;6.40;;;5.13;;
10343;SDS011;5217;43.960;10.954;2022-12-07T05:34:10;7.77;;;5.70;;
10343;SDS011;5217;43.960;10.954;2022-12-07T05:36:38;6.80;;;6.10;;
10343;SDS011;5217;43.960;10.954;2022-12-07T05:39:09;7.57;;;6.80;;
10343;SDS011;5217;43.960;10.954;2022-12-07T05:41:39;7.07;;;6.40;;
10343;SDS011;5217;43.960;10.954;2022-12-07T05:44:25;7.87;;;7.07;;
10343;SDS011;5217;43.960;10.954;2022-12-07T05:46:54;7.53;;;6.67;;
10343;SDS011;5217;43.960;10.954;2022-12-07T05:49:23;7.90;;;7.20;;
10343;SDS011;5217;43.960;10.954;2022-12-07T05:51:51;10.40;;;6.73;;
10343;SDS011;5217;43.960;10.954;2022-12-07T05:54:20;6.77;;;6.17;;
10343;SDS011;5217;43.960;10.954;2022-12-07T05:56:50;6.77;;;5.77;;
10343;SDS011;5217;43.960;10.954;2022-12-07T05:59:18;6.90;;;5.47;;
10343;SDS011;5217;43.960;10.954;2022-12-07T06:01:49;5.63;;;5.03;;
10343;SDS011;5217;43.960;10.954;2022-12-07T06:04:18;7.53;;;5.63;;
10343;SDS011;5217;43.960;10.954;2022-12-07T06:09:28;7.97;;;5.57;;
10343;SDS011;5217;43.960;10.954;2022-12-07T06:12:01;8.17;;;5.57;;
10343;SDS011;5217;43.960;10.954;2022-12-07T06:14:47;5.97;;;5.03;;
10343;SDS011;5217;43.960;10.954;2022-12-07T06:17:16;8.30;;;6.17;;
10343;SDS011;5217;43.960;10.954;2022-12-07T06:19:45;7.93;;;6.30;;
10343;SDS011;5217;43.960;10.954;2022-12-07T06:22:13;7.30;;;5.77;;
10343;SDS011;5217;43.960;10.954;2022-12-07T06:24:42;7.00;;;6.10;;
10343;SDS011;5217;43.960;10.954;2022-12-07T06:27:13;6.80;;;6.20;;
10343;SDS011;5217;43.960;10.954;2022-12-07T06:29:41;6.80;;;6.10;;
10343;SDS011;5217;43.960;10.954;2022-12-07T06:32:10;8.47;;;6.27;;
10343;SDS011;5217;43.960;10.954;2022-12-07T06:34:38;9.87;;;6.60;;
10343;SDS011;5217;43.960;10.954;2022-12-07T06:37:07;9.00;;;6.90;;
10343;SDS011;5217;43.960;10.954;2022-12-07T06:39:35;8.17;;;6.80;;
10343;SDS011;5217;43.960;10.954;2022-12-07T06:42:04;7.53;;;6.77;;
10343;SDS011;5217;43.960;10.954;2022-12-07T06:44:34;8.13;;;6.60;;
10343;SDS011;5217;43.960;10.954;2022-12-07T06:47:02;9.50;;;8.27;;
10343;SDS011;5217;43.960;10.954;2022-12-07T06:49:51;10.70;;;9.67;;
10343;SDS011;5217;43.960;10.954;2022-12-07T06:52:20;11.87;;;8.83;;
10343;SDS011;5217;43.960;10.954;2022-12-07T06:54:48;11.47;;;9.17;;
10343;SDS011;5217;43.960;10.954;2022-12-07T06:57:16;10.67;;;9.63;;
10343;SDS011;5217;43.960;10.954;2022-12-07T06:59:47;11.87;;;8.83;;
10343;SDS011;5217;43.960;10.954;2022-12-07T07:02:16;9.47;;;8.53;;
10343;SDS011;5217;43.960;10.954;2022-12-07T07:04:44;9.73;;;8.60;;
10343;SDS011;5217;43.960;10.954;2022-12-07T07:07:13;9.67;;;8.77;;
10343;SDS011;5217;43.960;10.954;2022-12-07T07:09:41;12.87;;;10.60;;
10343;SDS011;5217;43.960;10.954;2022-12-07T07:12:10;13.43;;;11.73;;
10343;SDS011;5217;43.960;10.954;2022-12-07T07:14:38;11.93;;;10.73;;
10343;SDS011;5217;43.960;10.954;2022-12-07T07:17:08;14.80;;;13.00;;
10343;SDS011;5217;43.960;10.954;2022-12-07T07:19:36;15.33;;;13.57;;
10343;SDS011;5217;43.960;10.954;2022-12-07T07:22:05;16.43;;;14.73;;
10343;SDS011;5217;43.960;10.954;2022-12-07T07:24:33;15.30;;;13.77;;
10343;SDS011;5217;43.960;10.954;2022-12-07T07:27:01;16.70;;;13.07;;
10343;SDS011;5217;43.960;10.954;2022-12-07T07:29:30;14.47;;;12.97;;
10343;SDS011;5217;43.960;10.954;2022-12-07T07:31:58;13.27;;;11.87;;
10343;SDS011;5217;43.960;10.954;2022-12-07T07:34:33;12.27;;;11.17;;
10343;SDS011;5217;43.960;10.954;2022-12-07T07:37:02;12.77;;;11.00;;
10343;SDS011;5217;43.960;10.954;2022-12-07T07:39:30;12.80;;;11.60;;
10343;SDS011;5217;43.960;10.954;2022-12-07T07:41:58;13.87;;;12.57;;
10343;SDS011;5217;43.960;10.954;2022-12-07T07:44:27;14.63;;;13.17;;
10343;SDS011;5217;43.960;10.954;2022-12-07T07:47:00;15.80;;;12.43;;
10343;SDS011;5217;43.960;10.954;2022-12-07T07:49:29;15.07;;;12.87;;
10343;SDS011;5217;43.960;10.954;2022-12-07T07:51:59;15.10;;;13.50;;
10343;SDS011;5217;43.960;10.954;2022-12-07T07:54:28;15.20;;;13.70;;
10343;SDS011;5217;43.960;10.954;2022-12-07T07:56:56;15.90;;;14.30;;
10343;SDS011;5217;43.960;10.954;2022-12-07T07:59:25;16.73;;;15.00;;
10343;SDS011;5217;43.960;10.954;2022-12-07T08:01:53;15.93;;;14.33;;
10343;SDS011;5217;43.960;10.954;2022-12-07T08:04:22;16.93;;;15.07;;
10343;SDS011;5217;43.960;10.954;2022-12-07T08:06:50;19.77;;;15.50;;
10343;SDS011;5217;43.960;10.954;2022-12-07T08:09:20;17.90;;;16.07;;
10343;SDS011;5217;43.960;10.954;2022-12-07T08:11:48;19.60;;;17.57;;
10343;SDS011;5217;43.960;10.954;2022-12-07T08:14:17;18.70;;;16.73;;
10343;SDS011;5217;43.960;10.954;2022-12-07T08:16:45;19.97;;;17.87;;
10343;SDS011;5217;43.960;10.954;2022-12-07T08:19:14;17.67;;;15.87;;
10343;SDS011;5217;43.960;10.954;2022-12-07T08:21:42;18.60;;;16.83;;
10343;SDS011;5217;43.960;10.954;2022-12-07T08:24:10;20.27;;;18.10;;
10343;SDS011;5217;43.960;10.954;2022-12-07T08:26:40;21.50;;;19.33;;
10343;SDS011;5217;43.960;10.954;2022-12-07T08:29:09;21.10;;;18.30;;
10343;SDS011;5217;43.960;10.954;2022-12-07T08:31:37;22.97;;;19.30;;
10343;SDS011;5217;43.960;10.954;2022-12-07T08:34:06;23.47;;;21.17;;
10343;SDS011;5217;43.960;10.954;2022-12-07T08:36:35;24.10;;;21.53;;
10343;SDS011;5217;43.960;10.954;2022-12-07T08:39:04;25.40;;;21.87;;
10343;SDS011;5217;43.960;10.954;2022-12-07T08:41:54;25.07;;;21.03;;
10343;SDS011;5217;43.960;10.954;2022-12-07T08:44:22;25.80;;;22.93;;
10343;SDS011;5217;43.960;10.954;2022-12-07T08:46:51;24.73;;;22.13;;
10343;SDS011;5217;43.960;10.954;2022-12-07T08:49:23;25.13;;;22.47;;
10343;SDS011;5217;43.960;10.954;2022-12-07T08:51:55;24.10;;;21.70;;
10343;SDS011;5217;43.960;10.954;2022-12-07T08:54:24;25.13;;;22.63;;
10343;SDS011;5217;43.960;10.954;2022-12-07T08:56:54;22.93;;;20.73;;
10343;SDS011;5217;43.960;10.954;2022-12-07T08:59:25;23.13;;;20.83;;
10343;SDS011;5217;43.960;10.954;2022-12-07T09:01:55;26.97;;;22.53;;
10343;SDS011;5217;43.960;10.954;2022-12-07T09:04:23;23.20;;;20.80;;
10343;SDS011;5217;43.960;10.954;2022-12-07T09:06:53;23.20;;;20.80;;
10343;SDS011;5217;43.960;10.954;2022-12-07T09:09:22;23.20;;;20.83;;
10343;SDS011;5217;43.960;10.954;2022-12-07T09:11:50;21.17;;;19.03;;
10343;SDS011;5217;43.960;10.954;2022-12-07T09:14:20;19.47;;;17.33;;
10343;SDS011;5217;43.960;10.954;2022-12-07T09:16:49;18.33;;;15.93;;
10343;SDS011;5217;43.960;10.954;2022-12-07T09:19:17;15.13;;;13.17;;
10343;SDS011;5217;43.960;10.954;2022-12-07T09:21:46;18.03;;;12.50;;
10343;SDS011;5217;43.960;10.954;2022-12-07T09:24:14;13.67;;;12.27;;
10343;SDS011;5217;43.960;10.954;2022-12-07T09:26:43;16.23;;;13.43;;
10343;SDS011;5217;43.960;10.954;2022-12-07T09:29:11;15.20;;;13.60;;
10343;SDS011;5217;43.960;10.954;2022-12-07T09:31:41;17.33;;;13.77;;
10343;SDS011;5217;43.960;10.954;2022-12-07T09:34:10;17.17;;;14.83;;
10343;SDS011;5217;43.960;10.954;2022-12-07T09:36:39;16.40;;;14.00;;
10343;SDS011;5217;43.960;10.954;2022-12-07T09:39:09;17.93;;;14.37;;
10343;SDS011;5217;43.960;10.954;2022-12-07T09:41:37;16.03;;;14.30;;
10343;SDS011;5217;43.960;10.954;2022-12-07T09:44:09;15.10;;;13.27;;
10343;SDS011;5217;43.960;10.954;2022-12-07T09:46:41;14.40;;;12.70;;
10343;SDS011;5217;43.960;10.954;2022-12-07T09:49:11;14.20;;;12.70;;
10343;SDS011;5217;43.960;10.954;2022-12-07T09:51:42;14.20;;;11.40;;
10343;SDS011;5217;43.960;10.954;2022-12-07T09:54:11;12.03;;;10.27;;
10343;SDS011;5217;43.960;10.954;2022-12-07T09:56:41;12.40;;;10.17;;
10343;SDS011;5217;43.960;10.954;2022-12-07T09:59:12;14.83;;;10.10;;
10343;SDS011;5217;43.960;10.954;2022-12-07T10:01:45;10.33;;;9.33;;
10343;SDS011;5217;43.960;10.954;2022-12-07T10:04:15;10.17;;;9.07;;
10343;SDS011;5217;43.960;10.954;2022-12-07T10:06:47;11.20;;;10.10;;
10343;SDS011;5217;43.960;10.954;2022-12-07T10:09:18;10.40;;;9.20;;
10343;SDS011;5217;43.960;10.954;2022-12-07T10:12:03;9.27;;;8.37;;
10343;SDS011;5217;43.960;10.954;2022-12-07T10:14:35;10.50;;;8.03;;
10343;SDS011;5217;43.960;10.954;2022-12-07T10:17:31;7.73;;;7.03;;
10343;SDS011;5217;43.960;10.954;2022-12-07T10:20:11;7.57;;;6.87;;
10343;SDS011;5217;43.960;10.954;2022-12-07T10:22:56;7.33;;;6.63;;
10343;SDS011;5217;43.960;10.954;2022-12-07T10:25:30;7.40;;;6.60;;
10343;SDS011;5217;43.960;10.954;2022-12-07T10:28:00;6.73;;;6.03;;
10343;SDS011;5217;43.960;10.954;2022-12-07T10:30:49;8.10;;;6.80;;
10343;SDS011;5217;43.960;10.954;2022-12-07T10:33:36;8.27;;;6.88;;
10343;SDS011;5217;43.960;10.954;2022-12-07T10:36:16;8.05;;;7.00;;
10343;SDS011;5217;43.960;10.954;2022-12-07T10:38:48;6.85;;;6.15;;
10343;SDS011;5217;43.960;10.954;2022-12-07T10:41:18;6.90;;;6.20;;
10343;SDS011;5217;43.960;10.954;2022-12-07T10:43:48;7.30;;;6.30;;
10343;SDS011;5217;43.960;10.954;2022-12-07T10:46:25;7.93;;;7.13;;
10343;SDS011;5217;43.960;10.954;2022-12-07T10:49:24;7.55;;;6.85;;
10343;SDS011;5217;43.960;10.954;2022-12-07T10:52:17;9.37;;;7.33;;
10343;SDS011;5217;43.960;10.954;2022-12-07T10:55:02;7.80;;;6.88;;
10343;SDS011;5217;43.960;10.954;2022-12-07T10:57:44;9.73;;;6.75;;
10343;SDS011;5217;43.960;10.954;2022-12-07T11:00:21;9.93;;;7.10;;
10343;SDS011;5217;43.960;10.954;2022-12-07T11:02:57;10.00;;;8.00;;
10343;SDS011;5217;43.960;10.954;2022-12-07T11:05:47;14.95;;;9.82;;
10343;SDS011;5217;43.960;10.954;2022-12-07T11:08:37;12.75;;;9.32;;
10343;SDS011;5217;43.960;10.954;2022-12-07T11:11:14;10.83;;;8.20;;
10343;SDS011;5217;43.960;10.954;2022-12-07T11:13:48;10.60;;;8.00;;
10343;SDS011;5217;43.960;10.954;2022-12-07T11:16:24;9.43;;;8.53;;
10343;SDS011;5217;43.960;10.954;2022-12-07T11:22:06;9.65;;;8.77;;
10343;SDS011;5217;43.960;10.954;2022-12-07T11:24:44;10.73;;;8.40;;
10343;SDS011;5217;43.960;10.954;2022-12-07T11:27:20;9.13;;;8.00;;
10343;SDS011;5217;43.960;10.954;2022-12-07T11:30:00;10.77;;;8.70;;
10343;SDS011;5217;43.960;10.954;2022-12-07T11:32:40;10.67;;;8.57;;
10343;SDS011;5217;43.960;10.954;2022-12-07T11:35:35;9.52;;;8.57;;
10343;SDS011;5217;43.960;10.954;2022-12-07T11:38:15;8.73;;;7.82;;
10343;SDS011;5217;43.960;10.954;2022-12-07T11:40:53;9.50;;;8.32;;
10343;SDS011;5217;43.960;10.954;2022-12-07T11:43:43;11.88;;;8.23;;
10343;SDS011;5217;43.960;10.954;2022-12-07T11:46:24;8.25;;;7.45;;
10343;SDS011;5217;43.960;10.954;2022-12-07T11:48:57;10.00;;;7.50;;
10343;SDS011;5217;43.960;10.954;2022-12-07T11:51:31;6.88;;;6.18;;
10343;SDS011;5217;43.960;10.954;2022-12-07T11:54:14;10.00;;;6.25;;
10343;SDS011;5217;43.960;10.954;2022-12-07T11:56:45;7.70;;;5.95;;
10343;SDS011;5217;43.960;10.954;2022-12-07T11:59:17;8.27;;;6.13;;
10343;SDS011;5217;43.960;10.954;2022-12-07T12:01:52;7.10;;;6.05;;
10343;SDS011;5217;43.960;10.954;2022-12-07T12:04:26;7.18;;;6.25;;
10343;SDS011;5217;43.960;10.954;2022-12-07T12:06:59;7.07;;;6.20;;
10343;SDS011;5217;43.960;10.954;2022-12-07T12:09:49;9.60;;;6.57;;
10343;SDS011;5217;43.960;10.954;2022-12-07T12:15:41;6.47;;;5.65;;
10343;SDS011;5217;43.960;10.954;2022-12-07T12:18:27;8.18;;;6.22;;
10343;SDS011;5217;43.960;10.954;2022-12-07T12:21:22;6.22;;;5.63;;
10343;SDS011;5217;43.960;10.954;2022-12-07T12:23:56;9.88;;;8.35;;
10343;SDS011;5217;43.960;10.954;2022-12-07T12:26:29;10.23;;;7.97;;
10343;SDS011;5217;43.960;10.954;2022-12-07T12:29:02;7.57;;;6.68;;
10343;SDS011;5217;43.960;10.954;2022-12-07T12:31:34;8.85;;;6.90;;
10343;SDS011;5217;43.960;10.954;2022-12-07T12:36:59;7.03;;;5.85;;
10343;SDS011;5217;43.960;10.954;2022-12-07T12:39:28;7.45;;;5.40;;
10343;SDS011;5217;43.960;10.954;2022-12-07T12:41:58;7.95;;;5.72;;
10343;SDS011;5217;43.960;10.954;2022-12-07T12:47:52;5.35;;;4.82;;
10343;SDS011;5217;43.960;10.954;2022-12-07T12:50:30;6.07;;;4.47;;
10343;SDS011;5217;43.960;10.954;2022-12-07T12:53:14;4.65;;;3.58;;
10343;SDS011;5217;43.960;10.954;2022-12-07T13:01:55;7.35;;;4.53;;
10343;SDS011;5217;43.960;10.954;2022-12-07T13:10:37;3.10;;;2.70;;
10343;SDS011;5217;43.960;10.954;2022-12-07T13:28:16;3.50;;;2.55;;
10343;SDS011;5217;43.960;10.954;2022-12-07T13:30:46;3.30;;;2.63;;
10343;SDS011;5217;43.960;10.954;2022-12-07T13:33:22;7.25;;;3.00;;
10343;SDS011;5217;43.960;10.954;2022-12-07T13:35:53;4.68;;;2.95;;
10343;SDS011;5217;43.960;10.954;2022-12-07T13:38:25;5.53;;;3.28;;
10343;SDS011;5217;43.960;10.954;2022-12-07T13:40:59;4.25;;;3.03;;
10343;SDS011;5217;43.960;10.954;2022-12-07T13:43:42;4.22;;;3.58;;
10343;SDS011;5217;43.960;10.954;2022-12-07T13:46:11;3.20;;;2.90;;
10343;SDS011;5217;43.960;10.954;2022-12-07T13:48:44;5.70;;;3.75;;
10343;SDS011;5217;43.960;10.954;2022-12-07T13:51:16;4.32;;;3.90;;
10343;SDS011;5217;43.960;10.954;2022-12-07T13:53:48;7.80;;;4.22;;
10343;SDS011;5217;43.960;10.954;2022-12-07T13:56:18;5.03;;;3.88;;
10343;SDS011;5217;43.960;10.954;2022-12-07T13:58:49;5.88;;;3.92;;
10343;SDS011;5217;43.960;10.954;2022-12-07T14:01:18;5.05;;;3.72;;
10343;SDS011;5217;43.960;10.954;2022-12-07T14:03:46;4.82;;;3.80;;
10343;SDS011;5217;43.960;10.954;2022-12-07T14:06:16;4.90;;;4.13;;
10343;SDS011;5217;43.960;10.954;2022-12-07T14:09:06;5.07;;;4.57;;
10343;SDS011;5217;43.960;10.954;2022-12-07T14:11:36;5.70;;;4.55;;
10343;SDS011;5217;43.960;10.954;2022-12-07T14:14:05;5.72;;;4.30;;
10343;SDS011;5217;43.960;10.954;2022-12-07T14:16:38;5.80;;;4.10;;
10343;SDS011;5217;43.960;10.954;2022-12-07T14:19:39;4.45;;;4.00;;
10343;SDS011;5217;43.960;10.954;2022-12-07T14:22:22;5.05;;;4.30;;
10343;SDS011;5217;43.960;10.954;2022-12-07T14:24:59;5.47;;;4.45;;
10343;SDS011;5217;43.960;10.954;2022-12-07T14:27:50;4.80;;;4.32;;
10343;SDS011;5217;43.960;10.954;2022-12-07T14:30:23;4.50;;;3.60;;
10343;SDS011;5217;43.960;10.954;2022-12-07T14:32:53;3.85;;;3.20;;
10343;SDS011;5217;43.960;10.954;2022-12-07T14:35:26;3.42;;;3.00;;
10343;SDS011;5217;43.960;10.954;2022-12-07T14:37:54;5.15;;;4.20;;
10343;SDS011;5217;43.960;10.954;2022-12-07T14:40:25;4.95;;;3.88;;
10343;SDS011;5217;43.960;10.954;2022-12-07T14:42:56;6.18;;;4.30;;
10343;SDS011;5217;43.960;10.954;2022-12-07T14:45:28;5.13;;;3.95;;
10343;SDS011;5217;43.960;10.954;2022-12-07T14:47:57;7.80;;;6.20;;
10343;SDS011;5217;43.960;10.954;2022-12-07T14:50:48;6.95;;;5.95;;
10343;SDS011;5217;43.960;10.954;2022-12-07T14:53:39;7.22;;;5.55;;
10343;SDS011;5217;43.960;10.954;2022-12-07T14:56:09;5.25;;;4.13;;
10343;SDS011;5217;43.960;10.954;2022-12-07T14:58:37;5.05;;;3.78;;
10343;SDS011;5217;43.960;10.954;2022-12-07T15:01:06;4.50;;;3.78;;
10343;SDS011;5217;43.960;10.954;2022-12-07T15:03:34;4.43;;;4.00;;
10343;SDS011;5217;43.960;10.954;2022-12-07T15:06:06;6.43;;;4.25;;
10343;SDS011;5217;43.960;10.954;2022-12-07T15:08:34;5.32;;;4.80;;
10343;SDS011;5217;43.960;10.954;2022-12-07T15:11:03;3.90;;;3.60;;
10343;SDS011;5217;43.960;10.954;2022-12-07T15:13:31;7.68;;;4.28;;
10343;SDS011;5217;43.960;10.954;2022-12-07T15:16:18;5.35;;;3.83;;
10343;SDS011;5217;43.960;10.954;2022-12-07T15:18:48;4.53;;;3.67;;
10343;SDS011;5217;43.960;10.954;2022-12-07T15:21:38;4.00;;;3.30;;
10343;SDS011;5217;43.960;10.954;2022-12-07T15:24:07;9.63;;;7.40;;
10343;SDS011;5217;43.960;10.954;2022-12-07T15:26:37;11.70;;;10.60;;
10343;SDS011;5217;43.960;10.954;2022-12-07T15:29:05;11.50;;;10.40;;
10343;SDS011;5217;43.960;10.954;2022-12-07T15:31:34;13.50;;;10.52;;
10343;SDS011;5217;43.960;10.954;2022-12-07T15:34:23;11.82;;;10.73;;
10343;SDS011;5217;43.960;10.954;2022-12-07T15:36:54;11.17;;;10.07;;
10343;SDS011;5217;43.960;10.954;2022-12-07T15:39:22;10.10;;;9.03;;
10343;SDS011;5217;43.960;10.954;2022-12-07T15:41:51;12.03;;;10.53;;
10343;SDS011;5217;43.960;10.954;2022-12-07T15:44:19;12.50;;;11.20;;
10343;SDS011;5217;43.960;10.954;2022-12-07T15:47:04;12.10;;;10.53;;
10343;SDS011;5217;43.960;10.954;2022-12-07T15:49:33;12.83;;;9.53;;
10343;SDS011;5217;43.960;10.954;2022-12-07T15:52:03;10.00;;;8.70;;
10343;SDS011;5217;43.960;10.954;2022-12-07T15:54:31;11.07;;;9.20;;
10343;SDS011;5217;43.960;10.954;2022-12-07T15:57:00;11.00;;;9.20;;
10343;SDS011;5217;43.960;10.954;2022-12-07T15:59:28;11.20;;;10.03;;